UAE21 KSAN-KLAX
Flight info
| Callsign | UAE21 |
|---|---|
| Flight time | 0h 53m |
| Altitude | 10000 |
| Route | CWARD2 SLI |
| Aircraft | A388/J-SADE2E3FGHIJ3J4J5M1RWXY/LB1D1 |
Departure
| Time | 2026-04-26 01:45 |
|---|---|
| Airport | San Diego International Airport (KSAN) |
Arrival
| Time | 2026-04-26 02:38 |
|---|---|
| Airport | Los Angeles International Airport (KLAX) |
| Time | Latitude | Longitude | Altitude | Speed | Heading |
|---|---|---|---|---|---|
| 2026-04-26 01:35 | 32.73308 | -117.20611 | 30 ft | 0 kts | 97° |
| 2026-04-26 01:36 | 32.73308 | -117.20610 | 30 ft | 0 kts | 97° |
| 2026-04-26 01:36 | 32.73308 | -117.20609 | 30 ft | 0 kts | 97° |
| 2026-04-26 01:37 | 32.73308 | -117.20608 | 30 ft | 0 kts | 97° |
| 2026-04-26 01:37 | 32.73308 | -117.20609 | 30 ft | 2 kts | 97° |
| 2026-04-26 01:37 | 32.73306 | -117.20594 | 30 ft | 18 kts | 98° |
| 2026-04-26 01:38 | 32.73304 | -117.20502 | 31 ft | 0 kts | 51° |
| 2026-04-26 01:38 | 32.73366 | -117.20468 | 31 ft | 21 kts | 355° |
| 2026-04-26 01:38 | 32.73439 | -117.20499 | 29 ft | 14 kts | 356° |
| 2026-04-26 01:38 | 32.73470 | -117.20481 | 28 ft | 7 kts | 59° |
| 2026-04-26 01:39 | 32.73502 | -117.20411 | 27 ft | 17 kts | 86° |
| 2026-04-26 01:39 | 32.73522 | -117.20288 | 30 ft | 15 kts | 77° |
| 2026-04-26 01:39 | 32.73482 | -117.20091 | 31 ft | 56 kts | 127° |
| 2026-04-26 01:39 | 32.73442 | -117.19906 | 32 ft | 28 kts | 77° |
| 2026-04-26 01:40 | 32.73420 | -117.19712 | 31 ft | 24 kts | 109° |
| 2026-04-26 01:40 | 32.73397 | -117.19555 | 32 ft | 17 kts | 101° |
| 2026-04-26 01:40 | 32.73376 | -117.19457 | 32 ft | 14 kts | 107° |
| 2026-04-26 01:40 | 32.73346 | -117.19337 | 29 ft | 22 kts | 111° |
| 2026-04-26 01:41 | 32.73309 | -117.19175 | 29 ft | 25 kts | 120° |
| 2026-04-26 01:41 | 32.73234 | -117.19023 | 30 ft | 23 kts | 119° |
| 2026-04-26 01:41 | 32.73215 | -117.18861 | 31 ft | 19 kts | 96° |
| 2026-04-26 01:41 | 32.73187 | -117.18719 | 33 ft | 18 kts | 103° |
| 2026-04-26 01:42 | 32.73156 | -117.18566 | 30 ft | 23 kts | 104° |
| 2026-04-26 01:42 | 32.73116 | -117.18388 | 29 ft | 25 kts | 113° |
| 2026-04-26 01:42 | 32.73068 | -117.18207 | 27 ft | 22 kts | 118° |
| 2026-04-26 01:42 | 32.73026 | -117.18053 | 28 ft | 19 kts | 105° |
| 2026-04-26 01:43 | 32.72988 | -117.17887 | 27 ft | 25 kts | 107° |
| 2026-04-26 01:43 | 32.72974 | -117.17723 | 27 ft | 9 kts | 41° |
| 2026-04-26 01:43 | 32.73057 | -117.17777 | 27 ft | 23 kts | 306° |
| 2026-04-26 01:43 | 32.73075 | -117.17856 | 29 ft | 0 kts | 292° |
| 2026-04-26 01:45 | 32.73076 | -117.17857 | 29 ft | 6 kts | 292° |
| 2026-04-26 01:45 | 32.73196 | -117.18313 | 29 ft | 111 kts | 285° |
| 2026-04-26 01:45 | 32.73476 | -117.19550 | 84 ft | 183 kts | 283° |
| 2026-04-26 01:45 | 32.73906 | -117.21082 | 760 ft | 206 kts | 290° |
| 2026-04-26 01:46 | 32.74489 | -117.22738 | 1779 ft | 224 kts | 290° |
| 2026-04-26 01:46 | 32.75112 | -117.24512 | 2732 ft | 244 kts | 293° |
| 2026-04-26 01:46 | 32.75991 | -117.26305 | 3678 ft | 260 kts | 305° |
| 2026-04-26 01:46 | 32.77225 | -117.27922 | 4644 ft | 272 kts | 311° |
| 2026-04-26 01:47 | 32.78534 | -117.29592 | 5576 ft | 283 kts | 311° |
| 2026-04-26 01:47 | 32.79899 | -117.31339 | 6477 ft | 294 kts | 310° |
| 2026-04-26 01:47 | 32.81164 | -117.33206 | 7190 ft | 278 kts | 302° |
| 2026-04-26 01:47 | 32.82186 | -117.34951 | 7892 ft | 234 kts | 303° |
| 2026-04-26 01:48 | 32.83101 | -117.36407 | 8633 ft | 219 kts | 303° |
| 2026-04-26 01:48 | 32.84053 | -117.37890 | 9433 ft | 231 kts | 303° |
| 2026-04-26 01:48 | 32.85090 | -117.39488 | 9898 ft | 259 kts | 303° |
| 2026-04-26 01:48 | 32.86262 | -117.41304 | 9991 ft | 293 kts | 303° |
| 2026-04-26 01:49 | 32.87527 | -117.43287 | 9983 ft | 305 kts | 303° |
| 2026-04-26 01:49 | 32.88805 | -117.45310 | 9987 ft | 309 kts | 303° |
| 2026-04-26 01:49 | 32.90105 | -117.47367 | 9981 ft | 320 kts | 303° |
| 2026-04-26 01:49 | 32.91475 | -117.49553 | 9981 ft | 333 kts | 303° |
| 2026-04-26 01:50 | 32.92865 | -117.51781 | 9982 ft | 336 kts | 303° |
| 2026-04-26 01:50 | 32.94248 | -117.54007 | 9981 ft | 335 kts | 303° |
| 2026-04-26 01:50 | 32.95613 | -117.56207 | 9981 ft | 335 kts | 303° |
| 2026-04-26 01:50 | 32.97001 | -117.58445 | 9979 ft | 335 kts | 303° |
| 2026-04-26 01:51 | 32.98374 | -117.60662 | 9979 ft | 335 kts | 303° |
| 2026-04-26 01:51 | 32.99787 | -117.62881 | 9978 ft | 335 kts | 305° |
| 2026-04-26 01:51 | 33.01244 | -117.65029 | 9975 ft | 335 kts | 307° |
| 2026-04-26 01:51 | 33.02760 | -117.67148 | 9977 ft | 335 kts | 307° |
| 2026-04-26 01:52 | 33.04273 | -117.69270 | 9977 ft | 335 kts | 307° |
| 2026-04-26 01:52 | 33.05780 | -117.71381 | 9978 ft | 335 kts | 307° |
| 2026-04-26 01:52 | 33.07372 | -117.73424 | 9978 ft | 337 kts | 314° |
| 2026-04-26 01:52 | 33.09185 | -117.75195 | 9971 ft | 338 kts | 317° |
| 2026-04-26 01:53 | 33.10946 | -117.77002 | 9961 ft | 337 kts | 314° |
| 2026-04-26 01:53 | 33.12655 | -117.78903 | 9961 ft | 337 kts | 315° |
| 2026-04-26 01:53 | 33.14559 | -117.80549 | 9959 ft | 341 kts | 325° |
| 2026-04-26 01:53 | 33.16633 | -117.81975 | 9957 ft | 342 kts | 326° |
| 2026-04-26 01:54 | 33.18666 | -117.83403 | 9961 ft | 340 kts | 322° |
| 2026-04-26 01:54 | 33.20511 | -117.85165 | 9960 ft | 339 kts | 318° |
| 2026-04-26 01:54 | 33.22575 | -117.86555 | 9976 ft | 346 kts | 336° |
| 2026-04-26 01:54 | 33.24877 | -117.87400 | 9975 ft | 348 kts | 341° |
| 2026-04-26 01:55 | 33.27210 | -117.88095 | 9961 ft | 338 kts | 343° |
| 2026-04-26 01:55 | 33.29431 | -117.88679 | 9968 ft | 318 kts | 343° |
| 2026-04-26 01:55 | 33.31513 | -117.89200 | 9960 ft | 300 kts | 343° |
| 2026-04-26 01:55 | 33.33512 | -117.89694 | 9963 ft | 282 kts | 343° |
| 2026-04-26 01:56 | 33.35392 | -117.90160 | 9958 ft | 267 kts | 343° |
| 2026-04-26 01:56 | 33.37143 | -117.90596 | 9956 ft | 255 kts | 343° |
| 2026-04-26 01:56 | 33.38816 | -117.91045 | 9960 ft | 245 kts | 336° |
| 2026-04-26 01:56 | 33.40423 | -117.91720 | 9962 ft | 246 kts | 337° |
| 2026-04-26 01:57 | 33.42033 | -117.92294 | 9965 ft | 247 kts | 339° |
| 2026-04-26 01:57 | 33.43689 | -117.92853 | 9959 ft | 247 kts | 339° |
| 2026-04-26 01:57 | 33.45329 | -117.93419 | 9945 ft | 246 kts | 338° |
| 2026-04-26 01:57 | 33.47044 | -117.94028 | 9384 ft | 261 kts | 339° |
| 2026-04-26 01:58 | 33.48755 | -117.94637 | 9372 ft | 251 kts | 338° |
| 2026-04-26 01:58 | 33.50469 | -117.95261 | 8772 ft | 263 kts | 339° |
| 2026-04-26 01:58 | 33.52251 | -117.95901 | 8302 ft | 267 kts | 340° |
| 2026-04-26 01:58 | 33.53981 | -117.96493 | 7939 ft | 259 kts | 340° |
| 2026-04-26 01:59 | 33.55693 | -117.97050 | 7663 ft | 248 kts | 341° |
| 2026-04-26 01:59 | 33.57368 | -117.97642 | 7339 ft | 274 kts | 339° |
| 2026-04-26 01:59 | 33.59328 | -117.98390 | 7307 ft | 306 kts | 339° |
| 2026-04-26 01:59 | 33.61398 | -117.99203 | 7646 ft | 321 kts | 339° |
| 2026-04-26 02:00 | 33.63571 | -118.00048 | 7243 ft | 330 kts | 339° |
| 2026-04-26 02:00 | 33.65706 | -118.00910 | 6995 ft | 310 kts | 338° |
| 2026-04-26 02:00 | 33.67649 | -118.01666 | 7063 ft | 278 kts | 339° |
| 2026-04-26 02:00 | 33.69411 | -118.02310 | 7125 ft | 252 kts | 340° |
| 2026-04-26 02:01 | 33.71037 | -118.02895 | 7155 ft | 239 kts | 339° |
| 2026-04-26 02:01 | 33.72611 | -118.03481 | 6979 ft | 233 kts | 338° |
| 2026-04-26 02:01 | 33.74109 | -118.04078 | 6969 ft | 232 kts | 337° |
| 2026-04-26 02:01 | 33.75555 | -118.04671 | 7135 ft | 231 kts | 338° |
| 2026-04-26 02:02 | 33.77090 | -118.05219 | 7429 ft | 238 kts | 341° |
| 2026-04-26 02:02 | 33.78682 | -118.05723 | 7190 ft | 246 kts | 341° |
| 2026-04-26 02:02 | 33.80373 | -118.06263 | 6727 ft | 249 kts | 348° |
| 2026-04-26 02:02 | 33.82070 | -118.06357 | 6895 ft | 237 kts | 353° |
| 2026-04-26 02:03 | 33.83710 | -118.06365 | 6926 ft | 239 kts | 0° |
| 2026-04-26 02:03 | 33.85383 | -118.06202 | 6928 ft | 240 kts | 1° |
| 2026-04-26 02:03 | 33.87037 | -118.06025 | 6955 ft | 240 kts | 1° |
| 2026-04-26 02:03 | 33.88702 | -118.05844 | 6955 ft | 240 kts | 1° |
| 2026-04-26 02:04 | 33.90393 | -118.05672 | 6463 ft | 252 kts | 1° |
| 2026-04-26 02:04 | 33.92151 | -118.05536 | 5878 ft | 257 kts | 360° |
| 2026-04-26 02:04 | 33.92762 | -118.05502 | 5565 ft | 265 kts | 360° |
| 2026-04-26 02:07 | 33.99093 | -118.13342 | 3697 ft | 210 kts | 245° |
| 2026-04-26 02:07 | 33.98483 | -118.14947 | 3695 ft | 206 kts | 246° |
| 2026-04-26 02:07 | 33.97931 | -118.16472 | 3711 ft | 190 kts | 248° |
| 2026-04-26 02:07 | 33.97570 | -118.17798 | 3689 ft | 146 kts | 257° |
| 2026-04-26 02:08 | 33.97400 | -118.18887 | 3562 ft | 122 kts | 260° |
| 2026-04-26 02:08 | 33.97274 | -118.20001 | 3764 ft | 138 kts | 262° |
| 2026-04-26 02:08 | 33.97166 | -118.21374 | 3702 ft | 192 kts | 265° |
| 2026-04-26 02:08 | 33.97040 | -118.23083 | 3650 ft | 212 kts | 262° |
| 2026-04-26 02:09 | 33.96756 | -118.24909 | 3222 ft | 238 kts | 259° |
| 2026-04-26 02:09 | 33.96601 | -118.26964 | 2651 ft | 232 kts | 264° |
| 2026-04-26 02:09 | 33.96330 | -118.28850 | 2161 ft | 241 kts | 263° |
| 2026-04-26 02:09 | 33.96203 | -118.30925 | 1748 ft | 254 kts | 261° |
| 2026-04-26 02:10 | 33.95898 | -118.33032 | 1361 ft | 254 kts | 265° |
| 2026-04-26 02:10 | 33.95777 | -118.34955 | 1026 ft | 210 kts | 259° |
| 2026-04-26 02:10 | 33.95566 | -118.36490 | 747 ft | 167 kts | 266° |
| 2026-04-26 02:10 | 33.95473 | -118.37794 | 548 ft | 157 kts | 258° |
| 2026-04-26 02:11 | 33.95314 | -118.39037 | 346 ft | 139 kts | 266° |
| 2026-04-26 02:11 | 33.95281 | -118.39783 | 211 ft | 125 kts | 261° |
| 2026-04-26 02:11 | 33.95050 | -118.41395 | 540 ft | 164 kts | 262° |
| 2026-04-26 02:11 | 33.94892 | -118.42805 | 1238 ft | 170 kts | 263° |
| 2026-04-26 02:12 | 33.94756 | -118.44247 | 1822 ft | 183 kts | 264° |
| 2026-04-26 02:12 | 33.94626 | -118.45775 | 1983 ft | 187 kts | 263° |
| 2026-04-26 02:12 | 33.94482 | -118.47372 | 2005 ft | 196 kts | 263° |
| 2026-04-26 02:12 | 33.94326 | -118.48992 | 1992 ft | 193 kts | 263° |
| 2026-04-26 02:13 | 33.94186 | -118.50589 | 2056 ft | 185 kts | 267° |
| 2026-04-26 02:13 | 33.94239 | -118.52094 | 2303 ft | 178 kts | 275° |
| 2026-04-26 02:13 | 33.94401 | -118.53586 | 2802 ft | 186 kts | 279° |
| 2026-04-26 02:13 | 33.94593 | -118.54742 | 3592 ft | 182 kts | 282° |
| 2026-04-26 02:14 | 33.94872 | -118.56141 | 4343 ft | 195 kts | 281° |
| 2026-04-26 02:14 | 33.95166 | -118.57786 | 5232 ft | 205 kts | 283° |
| 2026-04-26 02:14 | 33.95803 | -118.59396 | 5371 ft | 221 kts | 309° |
| 2026-04-26 02:14 | 33.97073 | -118.60436 | 5301 ft | 229 kts | 341° |
| 2026-04-26 02:15 | 33.98639 | -118.60484 | 5797 ft | 233 kts | 6° |
| 2026-04-26 02:15 | 34.00215 | -118.59897 | 6033 ft | 242 kts | 25° |
| 2026-04-26 02:15 | 34.01602 | -118.58694 | 5775 ft | 246 kts | 35° |
| 2026-04-26 02:15 | 34.02962 | -118.57431 | 5526 ft | 247 kts | 36° |
| 2026-04-26 02:16 | 34.04211 | -118.56163 | 5324 ft | 248 kts | 39° |
| 2026-04-26 02:16 | 34.05532 | -118.54799 | 5109 ft | 244 kts | 32° |
| 2026-04-26 02:16 | 34.06957 | -118.53665 | 5010 ft | 255 kts | 31° |
| 2026-04-26 02:16 | 34.08424 | -118.52499 | 4978 ft | 251 kts | 32° |
| 2026-04-26 02:17 | 34.09860 | -118.51277 | 5345 ft | 253 kts | 35° |
| 2026-04-26 02:17 | 34.11089 | -118.49775 | 5611 ft | 259 kts | 64° |
| 2026-04-26 02:17 | 34.11699 | -118.47721 | 5191 ft | 277 kts | 75° |
| 2026-04-26 02:17 | 34.12165 | -118.45496 | 4984 ft | 268 kts | 77° |
| 2026-04-26 02:18 | 34.12549 | -118.43370 | 5217 ft | 258 kts | 79° |
| 2026-04-26 02:18 | 34.12873 | -118.41146 | 5406 ft | 279 kts | 81° |
| 2026-04-26 02:18 | 34.13146 | -118.38814 | 5262 ft | 278 kts | 85° |
| 2026-04-26 02:18 | 34.13287 | -118.36554 | 5587 ft | 265 kts | 87° |
| 2026-04-26 02:19 | 34.13365 | -118.34253 | 5218 ft | 270 kts | 89° |
| 2026-04-26 02:19 | 34.13397 | -118.32041 | 4986 ft | 264 kts | 92° |
| 2026-04-26 02:19 | 34.13506 | -118.29877 | 5028 ft | 255 kts | 85° |
| 2026-04-26 02:19 | 34.13602 | -118.27757 | 4884 ft | 252 kts | 88° |
| 2026-04-26 02:20 | 34.13768 | -118.25695 | 5138 ft | 244 kts | 81° |
| 2026-04-26 02:20 | 34.14055 | -118.23596 | 5521 ft | 266 kts | 81° |
| 2026-04-26 02:20 | 34.14362 | -118.21292 | 5935 ft | 280 kts | 81° |
| 2026-04-26 02:20 | 34.14667 | -118.18987 | 6023 ft | 284 kts | 81° |
| 2026-04-26 02:21 | 34.14975 | -118.16644 | 6116 ft | 280 kts | 82° |
| 2026-04-26 02:21 | 34.15253 | -118.14301 | 6187 ft | 284 kts | 83° |
| 2026-04-26 02:21 | 34.15316 | -118.11936 | 6185 ft | 281 kts | 99° |
| 2026-04-26 02:21 | 34.14875 | -118.09653 | 6463 ft | 280 kts | 108° |
| 2026-04-26 02:22 | 34.14456 | -118.07325 | 6526 ft | 286 kts | 93° |
| 2026-04-26 02:22 | 34.14684 | -118.04940 | 6535 ft | 286 kts | 84° |
| 2026-04-26 02:22 | 34.14542 | -118.02586 | 6582 ft | 281 kts | 110° |
| 2026-04-26 02:22 | 34.13817 | -118.00377 | 6686 ft | 282 kts | 114° |
| 2026-04-26 02:23 | 34.13137 | -117.98165 | 6896 ft | 285 kts | 112° |
| 2026-04-26 02:23 | 34.12484 | -117.95909 | 7053 ft | 274 kts | 111° |
| 2026-04-26 02:23 | 34.11844 | -117.93706 | 7057 ft | 286 kts | 112° |
| 2026-04-26 02:23 | 34.11208 | -117.91436 | 7016 ft | 286 kts | 110° |
| 2026-04-26 02:24 | 34.10477 | -117.89160 | 6488 ft | 292 kts | 122° |
| 2026-04-26 02:24 | 34.09214 | -117.87279 | 5991 ft | 288 kts | 142° |
| 2026-04-26 02:24 | 34.07483 | -117.86061 | 5422 ft | 285 kts | 163° |
| 2026-04-26 02:24 | 34.05577 | -117.85613 | 4720 ft | 287 kts | 173° |
| 2026-04-26 02:25 | 34.03657 | -117.84932 | 3972 ft | 294 kts | 161° |
| 2026-04-26 02:25 | 34.01751 | -117.83988 | 3594 ft | 286 kts | 158° |
| 2026-04-26 02:25 | 34.00050 | -117.83076 | 3971 ft | 252 kts | 158° |
| 2026-04-26 02:25 | 33.98535 | -117.82211 | 4248 ft | 229 kts | 158° |
| 2026-04-26 02:26 | 33.97039 | -117.81654 | 4396 ft | 218 kts | 175° |
| 2026-04-26 02:26 | 33.95570 | -117.81703 | 4538 ft | 215 kts | 196° |
| 2026-04-26 02:26 | 33.94184 | -117.82374 | 4737 ft | 213 kts | 211° |
| 2026-04-26 02:26 | 33.92904 | -117.83284 | 4788 ft | 218 kts | 213° |
| 2026-04-26 02:27 | 33.91741 | -117.84417 | 4754 ft | 215 kts | 234° |
| 2026-04-26 02:27 | 33.91226 | -117.86051 | 4762 ft | 214 kts | 267° |
| 2026-04-26 02:27 | 33.91588 | -117.87803 | 4771 ft | 216 kts | 299° |
| 2026-04-26 02:27 | 33.92415 | -117.88985 | 4759 ft | 221 kts | 313° |
| 2026-04-26 02:28 | 33.93518 | -117.90287 | 4758 ft | 223 kts | 312° |
| 2026-04-26 02:28 | 33.94573 | -117.91642 | 4759 ft | 221 kts | 308° |
| 2026-04-26 02:28 | 33.95552 | -117.93048 | 4762 ft | 221 kts | 306° |
| 2026-04-26 02:28 | 33.96436 | -117.94410 | 4761 ft | 221 kts | 305° |
| 2026-04-26 02:29 | 33.97368 | -117.95894 | 4739 ft | 220 kts | 304° |
| 2026-04-26 02:29 | 33.98290 | -117.97371 | 4759 ft | 222 kts | 303° |
| 2026-04-26 02:29 | 33.99028 | -117.98973 | 4761 ft | 218 kts | 283° |
| 2026-04-26 02:29 | 33.99184 | -118.00793 | 4765 ft | 216 kts | 266° |
| 2026-04-26 02:30 | 33.99050 | -118.02597 | 4759 ft | 216 kts | 261° |
| 2026-04-26 02:30 | 33.98856 | -118.04385 | 4757 ft | 215 kts | 262° |
| 2026-04-26 02:30 | 33.98680 | -118.06159 | 4757 ft | 216 kts | 262° |
| 2026-04-26 02:30 | 33.98495 | -118.07964 | 4756 ft | 215 kts | 262° |
| 2026-04-26 02:31 | 33.98322 | -118.09670 | 4756 ft | 216 kts | 262° |
| 2026-04-26 02:31 | 33.98145 | -118.11395 | 4760 ft | 215 kts | 262° |
| 2026-04-26 02:31 | 33.97964 | -118.13178 | 4616 ft | 217 kts | 262° |
| 2026-04-26 02:31 | 33.97777 | -118.15008 | 4311 ft | 218 kts | 262° |
| 2026-04-26 02:32 | 33.97608 | -118.16672 | 4035 ft | 217 kts | 263° |
| 2026-04-26 02:32 | 33.97425 | -118.18467 | 3739 ft | 215 kts | 262° |
| 2026-04-26 02:32 | 33.97242 | -118.20245 | 3453 ft | 212 kts | 263° |
| 2026-04-26 02:32 | 33.97126 | -118.21396 | 3266 ft | 207 kts | 263° |
| 2026-04-26 02:33 | 33.96917 | -118.23447 | 2936 ft | 177 kts | 262° |
| 2026-04-26 02:33 | 33.96770 | -118.24893 | 2701 ft | 179 kts | 263° |
| 2026-04-26 02:33 | 33.96624 | -118.26318 | 2473 ft | 176 kts | 263° |
| 2026-04-26 02:33 | 33.96479 | -118.27746 | 2233 ft | 175 kts | 263° |
| 2026-04-26 02:34 | 33.96331 | -118.29196 | 2002 ft | 174 kts | 263° |
| 2026-04-26 02:34 | 33.96182 | -118.30651 | 1757 ft | 175 kts | 263° |
| 2026-04-26 02:34 | 33.96034 | -118.32102 | 1519 ft | 177 kts | 262° |
| 2026-04-26 02:34 | 33.95934 | -118.33080 | 1356 ft | 176 kts | 262° |
| 2026-04-26 02:35 | 33.95826 | -118.34138 | 1176 ft | 179 kts | 263° |
| 2026-04-26 02:35 | 33.95737 | -118.35005 | 1030 ft | 178 kts | 263° |
| 2026-04-26 02:35 | 33.95636 | -118.36008 | 852 ft | 176 kts | 264° |
| 2026-04-26 02:35 | 33.95465 | -118.37682 | 584 ft | 174 kts | 262° |
| 2026-04-26 02:36 | 33.95419 | -118.38133 | 492 ft | 173 kts | 262° |
| 2026-04-26 02:36 | 33.95371 | -118.38590 | 415 ft | 173 kts | 262° |
| 2026-04-26 02:36 | 33.95346 | -118.38829 | 388 ft | 173 kts | 262° |
| 2026-04-26 02:36 | 33.95327 | -118.39019 | 360 ft | 172 kts | 262° |
| 2026-04-26 02:37 | 33.95308 | -118.39209 | 322 ft | 172 kts | 262° |
| 2026-04-26 02:37 | 33.95284 | -118.39447 | 295 ft | 171 kts | 262° |
| 2026-04-26 02:37 | 33.95261 | -118.39684 | 250 ft | 171 kts | 262° |
| 2026-04-26 02:37 | 33.95252 | -118.39778 | 237 ft | 171 kts | 262° |
| 2026-04-26 02:38 | 33.95192 | -118.40376 | 144 ft | 166 kts | 262° |
| 2026-04-26 02:38 | 33.95047 | -118.41761 | 126 ft | 113 kts | 263° |
| 2026-04-26 02:38 | 33.94992 | -118.42317 | 131 ft | 86 kts | 263° |
| 2026-04-26 02:38 | 33.94939 | -118.42835 | 129 ft | 28 kts | 264° |
| 2026-04-26 02:39 | 33.94897 | -118.43019 | 127 ft | 20 kts | 231° |
| 2026-04-26 02:39 | 33.94803 | -118.43075 | 127 ft | 13 kts | 185° |
| 2026-04-26 02:39 | 33.94719 | -118.43067 | 125 ft | 12 kts | 156° |
| 2026-04-26 02:39 | 33.94628 | -118.42937 | 128 ft | 30 kts | 115° |
| 2026-04-26 02:40 | 33.94632 | -118.42714 | 128 ft | 28 kts | 77° |